Time;durP1;ratioP1;P1;durP2;ratioP2;P2;SDS_P1;SDS_P2;PMS_P1;PMS_P2;Temp;Humidity;BMP_temperature;BMP_pressure;BME280_temperature;BME280_humidity;BME280_pressure;Samples;Min_cycle;Max_cycle;Signal;HPM_P1;HPM_P2
2023/09/03 00:04:37;;;;;;;8.45;5.75;;;15.00;92.60;;;;;;20701601;28;20050;-43
2023/09/03 00:14:37;;;;;;;6.60;5.53;;;14.90;88.80;;;;;;20691879;28;20082;-43
2023/09/03 00:24:38;;;;;;;8.70;6.10;;;14.80;92.60;;;;;;20687542;28;20073;-43
2023/09/03 00:34:38;;;;;;;8.02;5.70;;;14.70;94.00;;;;;;20694168;28;20804;-43
2023/09/03 00:44:39;;;;;;;7.43;5.93;;;14.50;99.90;;;;;;20698481;28;20517;-43
2023/09/03 00:54:40;;;;;;;7.40;5.93;;;14.40;99.90;;;;;;20687554;28;20121;-43
2023/09/03 01:04:41;;;;;;;7.53;5.47;;;14.20;99.90;;;;;;20711227;28;20030;-42
2023/09/03 01:15:03;;;;;;;10.13;7.25;;;14.30;99.90;;;;;;20724190;28;20045;-43
2023/09/03 01:25:37;;;;;;;9.35;7.15;;;14.20;99.90;;;;;;20707787;28;20437;-43
2023/09/03 01:35:39;;;;;;;9.43;6.90;;;14.20;99.90;;;;;;20709047;28;20037;-43
2023/09/03 01:45:49;;;;;;;8.65;6.45;;;14.20;99.90;;;;;;20738486;28;20072;-43
2023/09/03 01:55:57;;;;;;;9.90;7.65;;;14.10;99.90;;;;;;20732213;28;20054;-43
2023/09/03 02:05:57;;;;;;;;;;;14.20;99.90;;;;;;20726286;28;20524;-43
2023/09/03 02:16:01;;;;;;;10.65;6.82;;;14.10;99.90;;;;;;20732470;28;19921;-43
2023/09/03 02:26:02;;;;;;;10.38;7.40;;;13.90;99.90;;;;;;20711852;28;20045;-43
2023/09/03 02:36:03;;;;;;;12.40;8.52;;;13.90;99.90;;;;;;20970926;23;20042;-43
2023/09/03 02:46:03;;;;;;;10.63;7.28;;;14.00;99.90;;;;;;20613451;28;20127;-43
2023/09/03 02:56:04;;;;;;;11.35;8.10;;;14.00;99.90;;;;;;20603859;28;20677;-43
2023/09/03 03:06:04;;;;;;;12.20;8.07;;;13.90;99.90;;;;;;20598247;28;20177;-43
2023/09/03 03:16:10;;;;;;;11.27;8.60;;;13.90;99.90;;;;;;20598456;28;20048;-43
2023/09/03 03:26:11;;;;;;;12.90;8.63;;;13.90;99.90;;;;;;20597081;28;20050;-43
2023/09/03 03:36:20;;;;;;;10.60;7.95;;;13.80;99.90;;;;;;20579840;28;20061;-43
2023/09/03 03:46:21;;;;;;;9.35;7.80;;;13.80;99.90;;;;;;20540335;28;20310;-41
2023/09/03 03:56:21;;;;;;;12.40;8.88;;;13.70;99.90;;;;;;20546641;28;20169;-41
2023/09/03 04:06:22;;;;;;;13.23;7.97;;;13.60;99.90;;;;;;20543208;28;20049;-41
2023/09/03 04:16:23;;;;;;;13.40;8.43;;;13.50;99.90;;;;;;20549921;28;20061;-41
2023/09/03 04:26:23;;;;;;;14.32;8.85;;;13.50;99.90;;;;;;20555930;28;20034;-41
2023/09/03 04:36:24;;;;;;;13.63;9.18;;;13.70;99.90;;;;;;20556507;28;20482;-41
2023/09/03 04:46:24;;;;;;;13.80;9.10;;;13.90;99.90;;;;;;20530007;28;20371;-41
2023/09/03 04:56:25;;;;;;;13.15;9.25;;;13.90;99.90;;;;;;20538103;28;20605;-41
2023/09/03 05:06:25;;;;;;;14.48;9.50;;;13.80;99.90;;;;;;20532907;28;20387;-41
2023/09/03 05:16:27;;;;;;;13.05;9.10;;;13.70;99.90;;;;;;20548627;28;20042;-41
2023/09/03 05:26:27;;;;;;;14.43;9.38;;;13.60;99.90;;;;;;20536750;28;20093;-41
2023/09/03 05:36:28;;;;;;;17.38;10.70;;;13.60;99.90;;;;;;20538163;28;20133;-41
2023/09/03 05:46:28;;;;;;;16.57;10.03;;;13.60;99.90;;;;;;20569341;28;20096;-41
2023/09/03 05:56:29;;;;;;;17.52;10.90;;;13.70;99.90;;;;;;20564710;28;20479;-41
2023/09/03 06:06:38;;;;;;;19.33;11.88;;;13.80;99.90;;;;;;20573694;28;20047;-41
2023/09/03 06:16:39;;;;;;;18.38;11.38;;;13.90;99.90;;;;;;20579655;28;20034;-41
2023/09/03 06:26:39;;;;;;;25.20;14.87;;;14.10;99.90;;;;;;20569486;28;20049;-41
2023/09/03 06:36:40;;;;;;;24.75;14.00;;;14.30;99.90;;;;;;20576911;28;20054;-41
2023/09/03 06:46:40;;;;;;;22.70;14.40;;;14.50;99.90;;;;;;20571283;28;20031;-41
2023/09/03 06:56:41;;;;;;;22.08;13.07;;;14.60;99.90;;;;;;20568729;28;20049;-41
2023/09/03 07:06:41;;;;;;;20.60;12.55;;;14.70;99.90;;;;;;20582627;28;20050;-41
2023/09/03 07:16:42;;;;;;;24.05;14.60;;;14.90;99.90;;;;;;20568939;28;20034;-41
2023/09/03 07:26:43;;;;;;;22.38;14.48;;;15.10;99.90;;;;;;20578701;28;20053;-41
2023/09/03 07:36:43;;;;;;;17.08;12.05;;;15.30;99.90;;;;;;20575180;28;20047;-41
2023/09/03 07:46:44;;;;;;;16.70;11.75;;;15.50;99.90;;;;;;20579319;28;20045;-41
2023/09/03 07:56:44;;;;;;;19.08;13.38;;;15.70;99.90;;;;;;20574671;28;20054;-41
2023/09/03 08:06:45;;;;;;;18.15;12.95;;;15.90;99.90;;;;;;20584292;28;20505;-41
2023/09/03 08:16:45;;;;;;;15.98;12.98;;;16.10;99.90;;;;;;20582111;28;20060;-41
2023/09/03 08:26:48;;;;;;;19.85;13.68;;;16.40;99.90;;;;;;20580891;28;20054;-42
2023/09/03 08:36:48;;;;;;;15.95;11.90;;;16.70;99.90;;;;;;20579205;28;20085;-41
2023/09/03 08:46:54;;;;;;;14.20;11.10;;;17.30;39.50;;;;;;20583691;28;20060;-41
2023/09/03 08:56:55;;;;;;;12.73;8.23;;;17.70;18.40;;;;;;20576427;28;20067;-42
2023/09/03 09:07:00;;;;;;;9.43;6.13;;;18.10;1.00;;;;;;20582391;28;20063;-42
2023/09/03 09:17:00;;;;;;;6.30;4.05;;;18.80;1.00;;;;;;20577075;28;20041;-42
2023/09/03 09:27:15;;;;;;;5.57;3.95;;;19.20;1.00;;;;;;20573176;28;20042;-41
2023/09/03 09:37:16;;;;;;;4.47;2.50;;;20.00;1.00;;;;;;20590887;28;20046;-42
2023/09/03 09:47:21;;;;;;;4.28;2.60;;;20.20;1.00;;;;;;20584497;28;20042;-41
2023/09/03 09:57:23;;;;;;;4.80;2.28;;;20.20;1.00;;;;;;20583322;28;20051;-42
2023/09/03 10:07:24;;;;;;;3.10;1.90;;;21.20;1.00;;;;;;20585035;28;20081;-42
2023/09/03 10:17:25;;;;;;;2.70;1.83;;;20.40;1.00;;;;;;20592048;28;20039;-42
2023/09/03 10:27:31;;;;;;;3.23;1.80;;;20.20;1.00;;;;;;20578872;28;20533;-42
2023/09/03 10:37:36;;;;;;;2.40;1.37;;;20.30;1.00;;;;;;20573391;28;20051;-42
2023/09/03 10:47:55;;;;;;;2.17;1.52;;;20.40;1.00;;;;;;20574024;28;20376;-42
2023/09/03 10:58:09;;;;;;;2.95;1.10;;;20.60;1.00;;;;;;20577574;28;20053;-42
2023/09/03 11:08:33;;;;;;;2.00;0.90;;;20.80;1.00;;;;;;20582665;28;20129;-42
2023/09/03 11:18:33;;;;;;;2.00;1.17;;;21.60;1.00;;;;;;20588774;28;20043;-41
2023/09/03 11:28:35;;;;;;;2.13;1.17;;;21.80;1.00;;;;;;20587662;28;20040;-42
2023/09/03 11:38:36;;;;;;;3.20;1.67;;;21.80;1.00;;;;;;20584488;28;20085;-42
2023/09/03 11:48:38;;;;;;;1.40;0.90;;;21.90;1.00;;;;;;20588728;28;20714;-42
2023/09/03 11:58:40;;;;;;;3.47;1.40;;;21.90;1.00;;;;;;20582950;28;20047;-42
2023/09/03 12:08:40;;;;;;;2.17;1.00;;;22.00;1.00;;;;;;20584201;28;20709;-42
2023/09/03 12:19:01;;;;;;;1.85;0.95;;;21.90;1.00;;;;;;20583693;28;20045;-42
2023/09/03 12:29:03;;;;;;;2.13;1.15;;;22.10;1.00;;;;;;20579008;28;20037;-42
2023/09/03 12:39:05;;;;;;;3.03;1.08;;;22.10;1.00;;;;;;20582186;28;20133;-42
2023/09/03 12:49:05;;;;;;;1.63;1.00;;;22.30;1.00;;;;;;20582913;28;20035;-42
2023/09/03 12:59:06;;;;;;;1.92;1.10;;;22.20;1.00;;;;;;20573464;28;20560;-42
2023/09/03 13:09:08;;;;;;;2.10;1.10;;;22.50;1.00;;;;;;20588141;28;20549;-42
2023/09/03 13:19:08;;;;;;;2.10;1.17;;;22.90;1.00;;;;;;20600792;28;20038;-42
2023/09/03 13:29:09;;;;;;;1.77;1.00;;;23.20;1.00;;;;;;20594907;28;20109;-42
2023/09/03 13:39:10;;;;;;;2.10;1.00;;;23.50;1.00;;;;;;20594534;28;20100;-42
2023/09/03 13:49:13;;;;;;;1.63;1.02;;;23.90;1.00;;;;;;20599722;28;20045;-42
2023/09/03 13:59:13;;;;;;;1.75;0.98;;;23.70;1.00;;;;;;20594889;28;20050;-42
2023/09/03 14:09:14;;;;;;;1.65;0.80;;;23.60;1.00;;;;;;20590251;28;20034;-42
2023/09/03 14:19:14;;;;;;;1.70;1.00;;;23.90;1.00;;;;;;20595024;28;20041;-41
2023/09/03 14:29:16;;;;;;;1.83;0.70;;;23.80;1.00;;;;;;20593081;28;20038;-42
2023/09/03 14:39:16;;;;;;;1.75;0.95;;;23.40;1.00;;;;;;20576692;28;20466;-41
2023/09/03 14:49:43;;;;;;;1.70;0.80;;;23.40;1.00;;;;;;20589056;28;20038;-42
2023/09/03 14:59:44;;;;;;;2.10;1.00;;;23.50;1.00;;;;;;20591163;28;20038;-41
2023/09/03 15:09:44;;;;;;;1.77;0.90;;;23.20;1.00;;;;;;20582475;28;20042;-41
2023/09/03 15:19:45;;;;;;;1.60;1.00;;;23.40;1.00;;;;;;20578559;28;20182;-41
2023/09/03 15:29:45;;;;;;;1.65;1.02;;;23.10;1.00;;;;;;20588360;28;20043;-41
2023/09/03 15:39:46;;;;;;;5.03;1.10;;;22.80;1.00;;;;;;20578763;28;20121;-41
2023/09/03 15:49:47;;;;;;;1.65;0.90;;;22.60;1.00;;;;;;20587462;28;20042;-41
2023/09/03 15:59:47;;;;;;;2.05;0.77;;;22.50;1.00;;;;;;20580632;28;20403;-41
2023/09/03 16:09:48;;;;;;;1.50;0.90;;;22.30;1.00;;;;;;20567853;28;20121;-41
2023/09/03 16:19:48;;;;;;;2.28;1.48;;;22.20;1.00;;;;;;20575979;28;20594;-41
2023/09/03 16:29:49;;;;;;;1.98;0.95;;;22.20;1.00;;;;;;20569525;28;20050;-41
2023/09/03 16:39:50;;;;;;;2.00;1.05;;;22.00;1.00;;;;;;20563427;28;20055;-41
2023/09/03 16:49:52;;;;;;;2.35;1.23;;;21.80;1.00;;;;;;20572110;28;20806;-41
2023/09/03 16:59:53;;;;;;;2.08;1.20;;;21.60;1.00;;;;;;20559750;28;20039;-41
2023/09/03 17:09:54;;;;;;;2.95;1.70;;;21.40;1.00;;;;;;20562030;28;20333;-41
2023/09/03 17:19:54;;;;;;;3.13;1.70;;;21.30;1.00;;;;;;20562529;28;20618;-41
2023/09/03 17:29:55;;;;;;;3.17;1.23;;;21.20;1.00;;;;;;20565837;28;20533;-41
2023/09/03 17:39:56;;;;;;;2.03;1.23;;;21.10;1.00;;;;;;20561872;28;21027;-41
2023/09/03 17:49:56;;;;;;;2.13;1.50;;;21.00;1.00;;;;;;20577465;28;20398;-41
2023/09/03 17:59:57;;;;;;;2.80;1.40;;;20.90;1.00;;;;;;20587113;28;20999;-41
2023/09/03 18:09:57;;;;;;;1.95;1.17;;;20.70;1.00;;;;;;20586997;28;20042;-41
2023/09/03 18:19:59;;;;;;;2.67;1.67;;;20.50;1.00;;;;;;20588882;28;20141;-41
2023/09/03 18:29:59;;;;;;;2.00;1.42;;;20.30;1.00;;;;;;20585613;28;20423;-41
2023/09/03 18:40:00;;;;;;;3.23;1.77;;;20.00;1.00;;;;;;20586601;28;20476;-41
2023/09/03 18:50:00;;;;;;;2.95;2.20;;;19.70;1.00;;;;;;20590883;28;20038;-41
2023/09/03 19:00:01;;;;;;;3.20;1.90;;;19.30;1.00;;;;;;20585112;28;20510;-41
2023/09/03 19:10:02;;;;;;;3.35;2.17;;;19.10;1.00;;;;;;20585574;28;20042;-41
2023/09/03 19:20:02;;;;;;;2.70;1.77;;;18.90;1.00;;;;;;20565850;28;20043;-41
2023/09/03 19:30:03;;;;;;;4.13;2.20;;;18.70;1.00;;;;;;20566895;28;20073;-41
2023/09/03 19:40:06;;;;;;;2.50;1.92;;;18.50;1.00;;;;;;20570408;28;20046;-41
2023/09/03 19:50:07;;;;;;;2.45;2.10;;;18.30;1.00;;;;;;20569829;28;20092;-41
2023/09/03 20:00:09;;;;;;;3.50;2.22;;;18.10;1.00;;;;;;20539680;28;20034;-41
2023/09/03 20:10:11;;;;;;;4.35;2.15;;;17.90;1.00;;;;;;20542735;28;20048;-41
2023/09/03 20:20:12;;;;;;;3.25;2.38;;;17.70;1.00;;;;;;20525110;28;20045;-41
2023/09/03 20:30:12;;;;;;;3.97;3.10;;;17.40;1.00;;;;;;20526672;28;20050;-41
2023/09/03 20:40:13;;;;;;;3.58;2.70;;;17.10;3.40;;;;;;20544217;28;21363;-41
2023/09/03 20:50:13;;;;;;;3.83;2.63;;;17.10;13.50;;;;;;20533702;28;20046;-41
2023/09/03 21:00:15;;;;;;;4.80;3.10;;;16.90;20.30;;;;;;20543694;28;20047;-41
2023/09/03 21:10:15;;;;;;;3.88;2.90;;;16.70;21.50;;;;;;20561289;28;20035;-41
2023/09/03 21:20:16;;;;;;;3.90;2.90;;;16.60;29.60;;;;;;20536998;28;20189;-41
2023/09/03 21:30:17;;;;;;;5.72;3.40;;;16.50;28.70;;;;;;20557198;28;20510;-41
2023/09/03 21:40:19;;;;;;;8.15;4.15;;;16.40;31.50;;;;;;20595496;28;20038;-40
2023/09/03 21:50:19;;;;;;;5.78;3.90;;;16.20;42.00;;;;;;20595125;28;20100;-41
2023/09/03 22:00:20;;;;;;;5.82;3.60;;;16.10;49.20;;;;;;20576579;28;20300;-41
2023/09/03 22:10:21;;;;;;;5.57;3.53;;;15.80;54.40;;;;;;20579431;28;20534;-41
2023/09/03 22:20:22;;;;;;;5.68;4.25;;;15.80;56.30;;;;;;20571480;28;20046;-40
2023/09/03 22:30:23;;;;;;;5.22;4.10;;;15.70;56.50;;;;;;20575110;28;20125;-41
2023/09/03 22:40:23;;;;;;;6.10;3.83;;;15.60;56.50;;;;;;20579024;28;20530;-41
2023/09/03 22:50:24;;;;;;;5.13;3.60;;;15.50;54.60;;;;;;20575354;28;20455;-41
2023/09/03 23:00:24;;;;;;;4.90;3.90;;;15.40;58.30;;;;;;20574050;28;20363;-41
2023/09/03 23:10:25;;;;;;;4.82;3.38;;;15.30;65.30;;;;;;20577987;28;20545;-41
2023/09/03 23:20:26;;;;;;;5.38;4.22;;;15.20;65.30;;;;;;20575430;28;20053;-41
2023/09/03 23:30:27;;;;;;;5.83;4.37;;;15.10;73.00;;;;;;20573697;28;20121;-41
2023/09/03 23:40:27;;;;;;;4.85;3.80;;;15.00;73.90;;;;;;20570629;28;20478;-41
2023/09/03 23:50:28;;;;;;;7.53;4.47;;;14.90;78.80;;;;;;20570774;28;20039;-41
